createdAt,value
2022-09-15T00:01:41.150Z,14.35
2022-09-15T00:04:10.081Z,16.00
2022-09-15T00:06:38.286Z,17.27
2022-09-15T00:09:06.682Z,16.67
2022-09-15T00:11:37.542Z,17.23
2022-09-15T00:14:08.091Z,17.13
2022-09-15T00:16:36.855Z,17.90
2022-09-15T00:19:07.558Z,17.75
2022-09-15T00:21:38.233Z,17.42
2022-09-15T00:24:07.184Z,16.33
2022-09-15T00:26:35.146Z,14.97
2022-09-15T00:29:03.594Z,13.30
2022-09-15T00:31:36.114Z,13.63
2022-09-15T00:34:05.796Z,14.52
2022-09-15T00:36:34.469Z,15.98
2022-09-15T00:39:03.714Z,13.98
2022-09-15T00:41:32.010Z,13.82
2022-09-15T00:44:17.041Z,12.88
2022-09-15T00:46:58.917Z,13.43
2022-09-15T00:49:40.309Z,13.55
2022-09-15T00:52:11.165Z,13.52
2022-09-15T00:54:42.561Z,14.80
2022-09-15T00:57:20.909Z,13.73
2022-09-15T00:59:50.238Z,15.57
2022-09-15T01:02:27.730Z,14.93
2022-09-15T01:04:59.061Z,14.88
2022-09-15T01:07:35.249Z,14.52
2022-09-15T01:10:12.936Z,15.13
2022-09-15T01:12:42.264Z,14.18
2022-09-15T01:15:10.315Z,14.00
2022-09-15T01:17:52.763Z,15.00
2022-09-15T01:20:48.335Z,15.57
2022-09-15T01:23:41.167Z,15.35
2022-09-15T01:26:25.358Z,16.13
2022-09-15T01:29:35.322Z,15.80
2022-09-15T01:32:47.973Z,15.55
2022-09-15T01:35:29.609Z,14.80
2022-09-15T01:38:05.874Z,14.77
2022-09-15T01:40:40.380Z,14.52
2022-09-15T01:43:10.894Z,16.23
2022-09-15T01:45:43.109Z,16.98
2022-09-15T01:48:13.037Z,19.45
2022-09-15T01:50:48.055Z,19.48
2022-09-15T01:53:21.891Z,17.45
2022-09-15T01:56:01.692Z,17.67
2022-09-15T01:58:31.136Z,18.25
2022-09-15T02:01:06.950Z,19.00
2022-09-15T02:03:52.555Z,18.00
2022-09-15T02:06:55.231Z,18.48
2022-09-15T02:09:32.207Z,17.50
2022-09-15T02:12:20.210Z,18.20
2022-09-15T02:15:04.125Z,19.95
2022-09-15T02:17:39.500Z,18.05
2022-09-15T02:20:27.092Z,19.38
2022-09-15T02:23:01.460Z,20.33
2022-09-15T02:25:34.570Z,22.92
2022-09-15T02:28:08.647Z,28.30
2022-09-15T02:30:43.775Z,26.00
2022-09-15T02:33:20.526Z,19.70
2022-09-15T02:35:48.610Z,18.27
2022-09-15T02:38:16.707Z,18.67
2022-09-15T02:40:45.843Z,18.35
2022-09-15T02:43:16.531Z,18.75
2022-09-15T02:45:45.271Z,17.05
2022-09-15T02:48:14.685Z,17.27
2022-09-15T02:50:42.900Z,17.38
2022-09-15T02:53:10.913Z,27.30
2022-09-15T02:55:40.775Z,24.88
2022-09-15T03:00:39.393Z,45.67
2022-09-15T03:03:07.529Z,47.92
2022-09-15T03:05:35.464Z,43.15
2022-09-15T03:08:03.582Z,34.60
2022-09-15T03:10:34.324Z,27.67
2022-09-15T03:13:02.305Z,25.70
2022-09-15T03:15:30.409Z,19.70
2022-09-15T03:17:59.409Z,19.35
2022-09-15T03:20:31.089Z,19.13
2022-09-15T03:22:59.302Z,21.15
2022-09-15T03:25:27.895Z,33.47
2022-09-15T03:27:55.930Z,30.20
2022-09-15T03:30:23.926Z,25.13
2022-09-15T03:32:52.195Z,21.83
2022-09-15T03:35:20.174Z,19.00
2022-09-15T03:37:48.108Z,20.27
2022-09-15T03:40:17.064Z,17.55
2022-09-15T03:42:45.119Z,18.37
2022-09-15T03:45:13.115Z,15.90
2022-09-15T03:47:41.230Z,16.73
2022-09-15T03:50:09.561Z,14.15
2022-09-15T03:52:37.660Z,11.55
2022-09-15T03:55:06.130Z,11.15
2022-09-15T03:57:34.064Z,13.82
2022-09-15T04:00:02.053Z,13.10
2022-09-15T04:02:33.796Z,13.27
2022-09-15T04:05:01.793Z,12.40
2022-09-15T04:07:32.027Z,17.50
2022-09-15T04:10:01.814Z,13.48
2022-09-15T04:12:33.313Z,14.02
2022-09-15T04:15:01.670Z,12.25
2022-09-15T04:20:00.034Z,10.95
2022-09-15T04:22:32.690Z,10.38
2022-09-15T04:25:01.854Z,13.55
2022-09-15T04:27:35.067Z,12.93
2022-09-15T04:30:03.167Z,10.90
2022-09-15T04:32:32.398Z,9.77
2022-09-15T04:35:00.330Z,10.45
2022-09-15T04:37:47.615Z,8.30
2022-09-15T04:40:15.782Z,7.88
2022-09-15T04:42:43.859Z,8.18
2022-09-15T04:45:12.413Z,6.88
2022-09-15T04:47:40.377Z,5.45
2022-09-15T04:50:08.581Z,7.18
2022-09-15T04:52:39.969Z,6.30
2022-09-15T04:55:08.253Z,5.38
2022-09-15T04:57:36.280Z,6.20
2022-09-15T05:00:10.878Z,5.65
2022-09-15T05:02:38.860Z,4.88
2022-09-15T05:05:07.182Z,5.78
2022-09-15T05:07:37.901Z,5.10
2022-09-15T05:10:06.363Z,6.05
2022-09-15T05:12:34.349Z,7.03
2022-09-15T05:15:02.390Z,7.25
2022-09-15T05:17:33.121Z,6.30
2022-09-15T05:20:01.977Z,4.85
2022-09-15T05:22:37.210Z,3.85
2022-09-15T05:25:07.860Z,4.10
2022-09-15T05:27:35.875Z,4.53
2022-09-15T05:30:34.996Z,5.90
2022-09-15T05:32:52.170Z,4.93
2022-09-15T05:35:22.164Z,5.30
2022-09-15T05:40:18.365Z,4.63
2022-09-15T05:42:48.987Z,4.93
2022-09-15T05:45:17.280Z,4.70
2022-09-15T05:47:45.311Z,4.63
2022-09-15T05:50:14.400Z,4.65
2022-09-15T05:52:42.543Z,4.20
2022-09-15T05:55:10.698Z,4.30
2022-09-15T05:57:39.836Z,4.10
2022-09-15T06:00:08.461Z,4.57
2022-09-15T06:02:36.422Z,3.85
2022-09-15T06:05:04.642Z,3.90
2022-09-15T06:07:32.657Z,3.50
2022-09-15T06:10:00.812Z,2.90
2022-09-15T06:12:32.045Z,3.28
2022-09-15T06:15:00.480Z,3.00
2022-09-15T06:17:29.618Z,2.83
2022-09-15T06:20:17.864Z,2.67
2022-09-15T06:22:47.040Z,2.35
2022-09-15T06:25:15.489Z,4.75
2022-09-15T06:27:43.652Z,5.82
2022-09-15T06:30:12.277Z,5.00
2022-09-15T06:32:40.185Z,5.18
2022-09-15T06:35:09.463Z,5.68
2022-09-15T06:37:37.449Z,4.93
2022-09-15T06:40:05.795Z,5.15
2022-09-15T06:42:33.978Z,3.55
2022-09-15T06:45:02.018Z,3.17
2022-09-15T06:47:34.430Z,2.83
2022-09-15T06:50:02.620Z,3.20
2022-09-15T06:52:31.834Z,3.03
2022-09-15T06:54:59.836Z,3.92
2022-09-15T06:57:28.142Z,3.97
2022-09-15T06:59:56.019Z,3.05
2022-09-15T07:02:24.123Z,3.38
2022-09-15T07:04:52.364Z,3.80
2022-09-15T07:07:20.981Z,3.00
2022-09-15T07:10:08.369Z,3.17
2022-09-15T07:12:36.314Z,2.97
2022-09-15T07:15:04.513Z,2.78
2022-09-15T07:17:32.762Z,1.90
2022-09-15T07:20:01.741Z,2.63
2022-09-15T07:22:32.233Z,1.88
2022-09-15T07:25:01.494Z,1.60
2022-09-15T07:27:32.500Z,1.83
2022-09-15T07:30:00.598Z,1.85
2022-09-15T07:32:28.760Z,2.90
2022-09-15T07:34:58.501Z,1.60
2022-09-15T07:39:56.980Z,1.20
2022-09-15T07:42:26.597Z,2.13
2022-09-15T07:44:54.556Z,1.50
2022-09-15T07:47:22.673Z,1.10
2022-09-15T07:49:50.964Z,1.20
2022-09-15T07:52:18.892Z,1.27
2022-09-15T07:54:47.903Z,1.20
2022-09-15T07:57:15.887Z,1.60
2022-09-15T07:59:43.833Z,1.27
2022-09-15T08:02:20.968Z,1.80
2022-09-15T08:04:49.105Z,1.67
2022-09-15T08:07:17.161Z,1.80
2022-09-15T08:09:45.533Z,2.05
2022-09-15T08:12:13.529Z,2.25
2022-09-15T08:14:41.552Z,2.10
2022-09-15T08:17:11.630Z,1.80
2022-09-15T08:19:39.935Z,1.80
2022-09-15T08:22:08.043Z,2.10
2022-09-15T08:24:39.025Z,1.83
2022-09-15T08:27:07.424Z,1.70
2022-09-15T08:29:35.420Z,2.38
2022-09-15T08:32:04.823Z,1.70
2022-09-15T08:34:32.860Z,13.07
2022-09-15T08:37:00.848Z,13.13
2022-09-15T08:39:31.253Z,7.82
2022-09-15T08:42:02.839Z,18.70
2022-09-15T08:44:45.811Z,26.48
2022-09-15T08:47:37.609Z,13.85
2022-09-15T08:50:36.250Z,10.38
2022-09-15T08:53:13.636Z,11.68
2022-09-15T08:55:54.906Z,15.00
2022-09-15T08:58:29.444Z,13.40
2022-09-15T09:01:05.889Z,13.93
2022-09-15T09:03:49.198Z,14.90
2022-09-15T09:06:29.601Z,13.43
2022-09-15T09:09:10.751Z,11.05
2022-09-15T09:11:54.496Z,11.45
2022-09-15T09:14:52.485Z,9.38
2022-09-15T09:17:37.187Z,10.40
2022-09-15T09:20:22.774Z,13.23
2022-09-15T09:22:55.188Z,12.80
2022-09-15T09:25:28.120Z,9.93
2022-09-15T09:28:03.018Z,9.40
2022-09-15T09:30:34.034Z,9.45
2022-09-15T09:33:38.678Z,9.38
2022-09-15T09:36:09.637Z,9.05
2022-09-15T09:38:43.846Z,9.00
2022-09-15T09:41:28.712Z,8.15
2022-09-15T09:43:57.164Z,7.30
2022-09-15T09:46:25.249Z,6.38
2022-09-15T09:49:24.533Z,6.38
2022-09-15T09:52:00.533Z,7.93
2022-09-15T09:54:35.902Z,7.35
2022-09-15T09:57:30.358Z,8.35
2022-09-15T09:59:58.842Z,7.55
2022-09-15T10:02:28.145Z,6.95
2022-09-15T10:05:09.116Z,6.15
2022-09-15T10:07:44.639Z,6.10
2022-09-15T10:10:26.018Z,6.20
2022-09-15T10:12:57.664Z,5.57
2022-09-15T10:15:34.087Z,4.93
2022-09-15T10:18:22.698Z,4.40
2022-09-15T10:20:53.443Z,4.72
2022-09-15T10:23:24.624Z,5.07
2022-09-15T10:26:00.673Z,4.85
2022-09-15T10:28:29.568Z,4.43
2022-09-15T10:31:14.957Z,4.40
2022-09-15T10:33:48.295Z,4.20
2022-09-15T10:36:24.490Z,4.13
2022-09-15T10:38:55.439Z,3.85
2022-09-15T10:41:37.094Z,3.28
2022-09-15T10:44:33.764Z,3.60
2022-09-15T10:47:37.698Z,3.90
2022-09-15T10:50:17.923Z,4.05
2022-09-15T10:52:57.859Z,3.25
2022-09-15T10:58:52.116Z,3.10
2022-09-15T11:01:32.654Z,3.15
2022-09-15T11:04:28.924Z,3.05
2022-09-15T11:07:23.951Z,3.63
2022-09-15T11:10:03.962Z,3.42
2022-09-15T11:12:46.653Z,3.67
2022-09-15T11:15:29.419Z,3.95
2022-09-15T11:18:20.851Z,3.85
2022-09-15T11:21:34.880Z,3.70
2022-09-15T11:24:27.717Z,3.55
2022-09-15T11:27:15.653Z,3.25
2022-09-15T11:30:01.823Z,4.22
2022-09-15T11:32:44.865Z,4.28
2022-09-15T11:35:43.114Z,4.38
2022-09-15T11:38:16.243Z,4.43
2022-09-15T11:41:02.702Z,3.80
2022-09-15T11:43:40.347Z,3.47
2022-09-15T11:46:14.477Z,3.20
2022-09-15T11:48:53.308Z,3.22
2022-09-15T11:51:25.502Z,3.72
2022-09-15T11:54:04.562Z,4.20
2022-09-15T11:56:44.763Z,3.70
2022-09-15T11:59:37.471Z,5.28
2022-09-15T12:02:44.699Z,10.00
2022-09-15T12:05:17.437Z,6.13
2022-09-15T12:07:56.549Z,4.47
2022-09-15T12:10:35.396Z,4.13
2022-09-15T12:13:04.320Z,6.82
2022-09-15T12:15:33.137Z,11.32
2022-09-15T12:18:41.002Z,6.45
2022-09-15T12:21:17.416Z,6.85
2022-09-15T12:24:12.757Z,6.15
2022-09-15T12:26:43.860Z,13.20
2022-09-15T12:30:02.912Z,9.88
2022-09-15T12:32:49.643Z,7.15
2022-09-15T12:35:22.233Z,9.88
2022-09-15T12:37:59.071Z,13.27
2022-09-15T12:40:40.089Z,11.52
2022-09-15T12:43:14.260Z,36.53
2022-09-15T12:45:45.303Z,55.95
2022-09-15T12:48:23.439Z,55.70
2022-09-15T12:50:59.495Z,16.63
2022-09-15T12:53:40.847Z,33.83
2022-09-15T12:56:25.323Z,34.92
2022-09-15T12:58:57.125Z,25.00
2022-09-15T13:01:25.178Z,25.50
2022-09-15T13:03:58.516Z,25.02
2022-09-15T13:06:27.715Z,21.23
2022-09-15T13:09:06.222Z,23.23
2022-09-15T13:11:55.608Z,24.88
2022-09-15T13:14:42.615Z,23.35
2022-09-15T13:17:26.899Z,24.42
2022-09-15T13:20:00.667Z,23.20
2022-09-15T13:22:38.248Z,23.33
2022-09-15T13:25:14.324Z,14.95
2022-09-15T13:27:56.138Z,14.32
2022-09-15T13:30:41.617Z,21.15
2022-09-15T13:38:03.773Z,20.23
2022-09-15T13:40:01.630Z,18.17
2022-09-15T13:43:03.992Z,17.13
2022-09-15T13:45:32.119Z,16.70
2022-09-15T13:48:00.141Z,17.65
2022-09-15T13:50:34.446Z,17.75
2022-09-15T13:53:27.974Z,19.15
2022-09-15T13:55:56.595Z,15.25
2022-09-15T14:01:16.834Z,23.67
2022-09-15T14:06:34.283Z,24.60
2022-09-15T14:09:08.522Z,20.52
2022-09-15T14:11:40.513Z,22.13
2022-09-15T14:14:22.383Z,29.17
2022-09-15T14:16:51.770Z,25.05
2022-09-15T14:19:35.353Z,22.25
2022-09-15T14:22:35.099Z,22.60
2022-09-15T14:25:12.409Z,17.33
2022-09-15T14:27:56.839Z,20.85
2022-09-15T14:30:31.785Z,17.70
2022-09-15T14:33:04.257Z,19.17
2022-09-15T14:35:37.671Z,15.45
2022-09-15T14:38:06.098Z,12.90
2022-09-15T14:40:40.120Z,11.60
2022-09-15T14:43:28.039Z,13.13
2022-09-15T14:46:05.157Z,12.95
2022-09-15T14:48:36.801Z,15.05
2022-09-15T14:54:28.958Z,15.20
2022-09-15T14:57:04.768Z,17.42
2022-09-15T14:59:57.894Z,25.55
2022-09-15T15:02:58.101Z,23.88
2022-09-15T15:05:34.845Z,18.63
2022-09-15T15:08:07.170Z,23.30
2022-09-15T15:10:38.764Z,27.80
2022-09-15T15:13:16.186Z,27.08
2022-09-15T15:15:45.672Z,30.35
2022-09-15T15:18:32.405Z,29.48
2022-09-15T15:21:00.649Z,27.35
2022-09-15T15:23:28.853Z,27.42
2022-09-15T15:26:40.704Z,23.33
2022-09-15T15:29:30.004Z,21.70
2022-09-15T15:32:14.078Z,23.35
2022-09-15T15:34:50.462Z,20.92
2022-09-15T15:37:34.913Z,17.95
2022-09-15T15:40:08.087Z,16.77
2022-09-15T15:45:25.808Z,18.30
2022-09-15T15:47:53.875Z,16.30
2022-09-15T15:50:25.128Z,17.70
2022-09-15T15:52:54.036Z,16.63
2022-09-15T15:55:25.208Z,16.02
2022-09-15T15:57:56.747Z,16.30
2022-09-15T16:00:31.362Z,12.98
2022-09-15T16:02:59.337Z,13.63
2022-09-15T16:05:29.864Z,14.68
2022-09-15T16:08:03.425Z,12.73
2022-09-15T16:10:39.700Z,13.25
2022-09-15T16:13:08.292Z,12.27
2022-09-15T16:15:36.314Z,11.95
2022-09-15T16:18:06.689Z,13.43
2022-09-15T16:20:34.916Z,13.48
2022-09-15T16:23:03.639Z,11.85
2022-09-15T16:25:42.239Z,15.00
2022-09-15T16:28:10.287Z,13.52
2022-09-15T16:30:38.371Z,13.30
2022-09-15T16:33:08.035Z,12.15
2022-09-15T16:36:08.935Z,10.90
2022-09-15T16:38:40.031Z,9.63
2022-09-15T16:41:19.758Z,10.68
2022-09-15T16:43:48.250Z,12.75
2022-09-15T16:46:17.954Z,12.40
2022-09-15T16:48:59.183Z,9.95
2022-09-15T16:51:31.432Z,8.93
2022-09-15T16:54:00.169Z,8.98
2022-09-15T16:56:30.463Z,9.40
2022-09-15T16:59:00.583Z,9.88
2022-09-15T17:01:29.190Z,7.57
2022-09-15T17:03:57.309Z,9.80
2022-09-15T17:06:25.988Z,8.75
2022-09-15T17:08:54.269Z,9.18
2022-09-15T17:11:25.967Z,9.23
2022-09-15T17:13:54.334Z,11.32
2022-09-15T17:16:22.642Z,11.40
2022-09-15T17:18:51.671Z,9.48
2022-09-15T17:21:20.326Z,11.00
2022-09-15T17:23:50.444Z,11.45
2022-09-15T17:26:21.599Z,11.88
2022-09-15T17:28:50.017Z,12.07
2022-09-15T17:31:24.253Z,11.75
2022-09-15T17:33:53.133Z,11.90
2022-09-15T17:36:21.337Z,12.40
2022-09-15T17:38:49.432Z,14.02
2022-09-15T17:41:20.209Z,13.38
2022-09-15T17:43:48.377Z,13.45
2022-09-15T17:46:16.648Z,10.82
2022-09-15T17:48:44.940Z,9.50
2022-09-15T17:51:20.050Z,9.00
2022-09-15T17:53:49.896Z,10.07
2022-09-15T17:58:45.632Z,12.85
2022-09-15T18:01:15.806Z,14.20
2022-09-15T18:03:45.575Z,12.30
2022-09-15T18:06:13.930Z,14.23
2022-09-15T18:08:42.216Z,15.27
2022-09-15T18:11:15.046Z,17.67
2022-09-15T18:13:43.755Z,18.63
2022-09-15T18:16:15.016Z,15.40
2022-09-15T18:18:43.623Z,14.40
2022-09-15T18:21:27.075Z,12.43
2022-09-15T18:23:56.821Z,12.10
2022-09-15T18:26:26.606Z,12.35
2022-09-15T18:28:55.458Z,11.27
2022-09-15T18:31:23.525Z,9.90
2022-09-15T18:33:51.561Z,10.57
2022-09-15T18:36:21.268Z,12.13
2022-09-15T18:38:49.228Z,13.85
2022-09-15T18:41:17.238Z,13.02
2022-09-15T18:43:49.574Z,16.70
2022-09-15T18:46:18.660Z,15.15
2022-09-15T18:48:47.245Z,10.88
2022-09-15T18:51:23.975Z,15.65
2022-09-15T18:53:58.059Z,15.60
2022-09-15T18:56:26.266Z,16.15
2022-09-15T18:59:34.496Z,12.45
2022-09-15T19:02:02.691Z,10.82
2022-09-15T19:04:33.342Z,11.82
2022-09-15T19:07:03.073Z,10.57
2022-09-15T19:09:31.584Z,13.98
2022-09-15T19:11:59.560Z,13.25
2022-09-15T19:14:32.070Z,11.60
2022-09-15T19:17:00.396Z,13.65
2022-09-15T19:19:28.423Z,11.60
2022-09-15T19:21:59.028Z,12.15
2022-09-15T19:24:32.857Z,11.70
2022-09-15T19:27:06.569Z,9.85
2022-09-15T19:30:35.344Z,8.98
2022-09-15T19:33:03.778Z,10.27
2022-09-15T19:35:31.794Z,11.40
2022-09-15T19:38:00.935Z,13.88
2022-09-15T19:40:29.063Z,13.27
2022-09-15T19:42:57.238Z,13.45
2022-09-15T19:45:27.073Z,12.85
2022-09-15T19:47:55.077Z,13.50
2022-09-15T19:50:23.120Z,14.80
2022-09-15T19:52:54.234Z,14.13
2022-09-15T19:55:24.705Z,14.20
2022-09-15T19:57:52.690Z,13.63
2022-09-15T20:00:20.828Z,13.25
2022-09-15T20:02:49.239Z,14.55
2022-09-15T20:05:17.286Z,13.57
2022-09-15T20:07:47.645Z,14.50
2022-09-15T20:10:17.121Z,14.80
2022-09-15T20:12:45.131Z,15.30
2022-09-15T20:15:14.112Z,16.90
2022-09-15T20:17:43.106Z,16.27
2022-09-15T20:20:12.480Z,17.10
2022-09-15T20:22:42.333Z,15.18
2022-09-15T20:25:10.307Z,14.38
2022-09-15T20:27:39.025Z,16.13
2022-09-15T20:30:07.716Z,16.13
2022-09-15T20:32:35.922Z,14.98
2022-09-15T20:35:03.900Z,14.77
2022-09-15T20:37:37.279Z,14.68
2022-09-15T20:40:08.949Z,12.73
2022-09-15T20:42:37.535Z,15.15
2022-09-15T20:45:06.101Z,15.15
2022-09-15T20:47:34.541Z,12.20
2022-09-15T20:50:02.491Z,13.07
2022-09-15T20:52:37.396Z,15.63
2022-09-15T20:55:06.707Z,14.18
2022-09-15T20:57:34.815Z,14.82
2022-09-15T21:00:06.976Z,14.38
2022-09-15T21:02:34.741Z,14.02
2022-09-15T21:05:02.699Z,15.45
2022-09-15T21:07:33.058Z,13.48
2022-09-15T21:10:00.984Z,14.13
2022-09-15T21:12:29.069Z,12.95
2022-09-15T21:14:58.535Z,13.02
2022-09-15T21:17:26.514Z,13.38
2022-09-15T21:19:54.451Z,12.80
2022-09-15T21:22:23.713Z,12.07
2022-09-15T21:24:51.852Z,12.68
2022-09-15T21:27:29.878Z,14.77
2022-09-15T21:29:58.089Z,12.23
2022-09-15T21:32:26.123Z,12.45
2022-09-15T21:34:59.168Z,12.77
2022-09-15T21:37:28.656Z,12.60
2022-09-15T21:39:57.532Z,16.88
2022-09-15T21:42:27.571Z,11.57
2022-09-15T21:44:56.306Z,10.18
2022-09-15T21:47:24.550Z,12.83
2022-09-15T21:49:54.121Z,13.52
2022-09-15T21:54:50.239Z,12.27
2022-09-15T21:57:18.619Z,12.85
2022-09-15T21:59:46.602Z,13.70
2022-09-15T22:02:14.544Z,15.90
2022-09-15T22:04:42.696Z,15.65
2022-09-15T22:07:10.775Z,13.73
2022-09-15T22:09:39.572Z,14.73
2022-09-15T22:12:09.088Z,12.17
2022-09-15T22:14:37.052Z,12.43
2022-09-15T22:17:05.057Z,11.00
2022-09-15T22:19:35.776Z,12.43
2022-09-15T22:22:03.822Z,12.07
2022-09-15T22:24:31.820Z,12.80
2022-09-15T22:27:00.808Z,11.30
2022-09-15T22:29:28.790Z,11.45
2022-09-15T22:31:56.821Z,11.45
2022-09-15T22:34:25.958Z,11.57
2022-09-15T22:36:53.945Z,9.75
2022-09-15T22:39:27.024Z,11.15
2022-09-15T22:42:08.011Z,9.90
2022-09-15T22:44:36.062Z,10.07
2022-09-15T22:47:06.873Z,11.02
2022-09-15T22:49:34.985Z,9.80
2022-09-15T22:52:03.201Z,9.35
2022-09-15T22:57:18.046Z,9.52
2022-09-15T23:02:13.721Z,10.35
2022-09-15T23:04:41.900Z,10.45
2022-09-15T23:07:10.055Z,10.77
2022-09-15T23:09:38.041Z,11.60
2022-09-15T23:12:12.353Z,11.35
2022-09-15T23:14:40.329Z,11.52
2022-09-15T23:17:08.257Z,10.32
2022-09-15T23:19:36.420Z,11.68
2022-09-15T23:22:04.358Z,9.85
2022-09-15T23:24:33.661Z,11.32
2022-09-15T23:27:02.744Z,11.00
2022-09-15T23:29:31.752Z,11.05
2022-09-15T23:31:59.775Z,10.45
2022-09-15T23:34:30.005Z,11.77
2022-09-15T23:36:57.980Z,12.05
2022-09-15T23:39:25.953Z,9.85
2022-09-15T23:41:54.916Z,10.57
2022-09-15T23:44:22.904Z,10.77
2022-09-15T23:46:50.997Z,10.23
2022-09-15T23:49:37.345Z,10.35
2022-09-15T23:52:05.275Z,10.25
2022-09-15T23:54:33.248Z,9.98
2022-09-15T23:57:02.141Z,10.00
2022-09-15T23:59:30.116Z,10.35
